Terminal Aerodrome Forecast
Issued by NWS

Home | Current Version | Previous Version | Text Only | Print | Product List | Glossary On
Versions: 1 2 3 4 5 6 7 8 9 10 11 12 13 14 15 16 17
000
FTUS44 KTSA 310500
TAFRVS
TAF
KRVS 310521Z 3106/0106 05005KT P6SM -RA BKN006
     FM310800 04005KT P6SM -RA BKN015
     FM311200 07005KT 4SM BR OVC006
     FM311500 11005KT P6SM BKN015
     FM312000 11006KT P6SM BKN050
     FM010000 VRB03KT P6SM BKN150=

USA.gov is the U.S. government's official web portal to all federal, state and local government web resources and services.